createdAt,value
2022-09-26T00:00:05.995Z,1.04
2022-09-26T00:01:06.098Z,1.04
2022-09-26T00:02:06.252Z,1.04
2022-09-26T00:03:06.331Z,1.04
2022-09-26T00:04:06.437Z,1.04
2022-09-26T00:05:06.590Z,1.04
2022-09-26T00:06:06.695Z,1.04
2022-09-26T00:07:06.837Z,1.04
2022-09-26T00:08:06.939Z,1.04
2022-09-26T00:09:07.047Z,1.04
2022-09-26T00:10:07.194Z,1.04
2022-09-26T00:11:07.296Z,1.04
2022-09-26T00:12:07.450Z,1.04
2022-09-26T00:13:07.549Z,1.04
2022-09-26T00:14:07.711Z,1.04
2022-09-26T00:15:07.857Z,1.04
2022-09-26T00:16:08.015Z,1.04
2022-09-26T00:17:08.199Z,1.04
2022-09-26T00:18:08.260Z,1.04
2022-09-26T00:19:08.399Z,1.04
2022-09-26T00:20:08.511Z,1.04
2022-09-26T00:21:08.666Z,1.04
2022-09-26T00:22:08.769Z,1.04
2022-09-26T00:23:08.874Z,1.04
2022-09-26T00:24:08.972Z,1.04
2022-09-26T00:25:09.069Z,1.04
2022-09-26T00:26:09.175Z,1.04
2022-09-26T00:27:09.278Z,1.04
2022-09-26T00:28:09.376Z,1.04
2022-09-26T00:29:09.605Z,1.04
2022-09-26T00:30:09.683Z,1.04
2022-09-26T00:31:09.866Z,1.04
2022-09-26T00:32:09.934Z,1.04
2022-09-26T00:33:10.036Z,1.04
2022-09-26T00:34:10.191Z,1.04
2022-09-26T00:35:10.344Z,1.04
2022-09-26T00:36:10.456Z,1.04
2022-09-26T00:37:10.598Z,1.04
2022-09-26T00:38:10.744Z,1.04
2022-09-26T00:39:10.901Z,1.04
2022-09-26T00:40:11.039Z,1.04
2022-09-26T00:41:11.153Z,1.04
2022-09-26T00:42:11.303Z,1.04
2022-09-26T00:43:11.409Z,1.04
2022-09-26T00:44:11.507Z,1.04
2022-09-26T00:45:11.661Z,1.04
2022-09-26T00:46:11.835Z,1.04
2022-09-26T00:47:11.906Z,1.04
2022-09-26T00:48:12.060Z,1.04
2022-09-26T00:49:12.201Z,1.04
2022-09-26T00:50:12.261Z,1.04
2022-09-26T00:51:12.373Z,1.04
2022-09-26T00:52:12.520Z,1.04
2022-09-26T00:53:12.674Z,1.04
2022-09-26T00:54:12.824Z,1.04
2022-09-26T00:55:12.926Z,1.04
2022-09-26T00:56:13.079Z,1.04
2022-09-26T00:57:13.184Z,1.04
2022-09-26T00:58:13.330Z,1.04
2022-09-26T00:59:13.589Z,1.04
2022-09-26T01:00:13.586Z,1.04
2022-09-26T01:01:13.893Z,1.04
2022-09-26T01:02:13.946Z,1.04
2022-09-26T01:03:13.939Z,1.04
2022-09-26T01:04:14.095Z,1.04
2022-09-26T01:05:14.247Z,1.04
2022-09-26T01:06:14.350Z,1.04
2022-09-26T01:07:14.447Z,1.04
2022-09-26T01:08:14.593Z,1.04
2022-09-26T01:09:14.871Z,1.04
2022-09-26T01:10:14.854Z,1.04
2022-09-26T01:11:17.059Z,1.04
2022-09-26T01:12:15.120Z,1.04
2022-09-26T01:13:15.256Z,1.04
2022-09-26T01:14:15.466Z,1.04
2022-09-26T01:15:15.569Z,1.04
2022-09-26T01:16:15.801Z,1.04
2022-09-26T01:17:15.810Z,1.04
2022-09-26T01:18:15.965Z,1.04
2022-09-26T01:19:16.064Z,1.04
2022-09-26T01:20:16.236Z,1.04
2022-09-26T01:21:16.321Z,1.04
2022-09-26T01:22:16.421Z,1.04
2022-09-26T01:23:16.585Z,1.04
2022-09-26T01:24:16.724Z,1.04
2022-09-26T01:25:16.825Z,1.04
2022-09-26T01:26:16.976Z,1.04
2022-09-26T01:27:17.083Z,1.04
2022-09-26T01:28:17.230Z,1.04
2022-09-26T01:29:17.331Z,1.04
2022-09-26T01:30:17.437Z,1.04
2022-09-26T01:31:17.618Z,1.04
2022-09-26T01:32:17.691Z,1.04
2022-09-26T01:33:17.791Z,1.04
2022-09-26T01:34:17.951Z,1.04
2022-09-26T01:35:18.047Z,1.04
2022-09-26T01:36:18.195Z,1.04
2022-09-26T01:37:18.301Z,1.04
2022-09-26T01:38:18.401Z,1.04
2022-09-26T01:39:18.551Z,1.04
2022-09-26T01:40:18.684Z,1.04
2022-09-26T01:41:18.757Z,1.04
2022-09-26T01:42:18.906Z,1.04
2022-09-26T01:43:19.058Z,1.04
2022-09-26T01:44:19.210Z,1.04
2022-09-26T01:45:19.361Z,1.04
2022-09-26T01:46:19.553Z,1.04
2022-09-26T01:47:19.621Z,1.04
2022-09-26T01:48:19.764Z,1.04
2022-09-26T01:49:19.868Z,1.04
2022-09-26T01:50:20.026Z,1.04
2022-09-26T01:51:20.126Z,1.04
2022-09-26T01:52:20.278Z,1.04
2022-09-26T01:53:20.380Z,1.04
2022-09-26T01:54:20.525Z,1.04
2022-09-26T01:55:20.630Z,1.04
2022-09-26T01:56:20.737Z,1.04
2022-09-26T01:57:20.926Z,1.04
2022-09-26T01:58:21.077Z,1.04
2022-09-26T01:59:21.227Z,1.04
2022-09-26T02:00:21.338Z,1.04
2022-09-26T02:01:21.608Z,1.04
2022-09-26T02:02:21.730Z,1.04
2022-09-26T02:03:21.746Z,1.04
2022-09-26T02:04:21.846Z,1.04
2022-09-26T02:05:21.950Z,1.04
2022-09-26T02:06:22.046Z,1.04
2022-09-26T02:07:22.151Z,1.04
2022-09-26T02:08:22.252Z,1.04
2022-09-26T02:09:22.356Z,1.04
2022-09-26T02:10:22.523Z,1.04
2022-09-26T02:11:22.669Z,1.04
2022-09-26T02:12:22.760Z,1.04
2022-09-26T02:13:22.914Z,1.04
2022-09-26T02:14:23.017Z,1.04
2022-09-26T02:15:23.114Z,1.04
2022-09-26T02:16:23.316Z,1.04
2022-09-26T02:17:23.419Z,1.04
2022-09-26T02:18:23.568Z,1.04
2022-09-26T02:19:23.671Z,1.04
2022-09-26T02:20:23.773Z,1.04
2022-09-26T02:21:23.927Z,1.04
2022-09-26T02:22:24.028Z,1.04
2022-09-26T02:23:24.135Z,1.04
2022-09-26T02:24:24.232Z,1.04
2022-09-26T02:25:24.333Z,1.04
2022-09-26T02:26:24.436Z,1.04
2022-09-26T02:27:24.535Z,1.04
2022-09-26T02:28:24.691Z,1.04
2022-09-26T02:29:24.794Z,1.04
2022-09-26T02:30:24.945Z,1.04
2022-09-26T02:31:25.166Z,1.04
2022-09-26T02:32:25.201Z,1.04
2022-09-26T02:33:25.352Z,1.04
2022-09-26T02:34:25.449Z,1.04
2022-09-26T02:35:25.555Z,1.04
2022-09-26T02:36:25.654Z,1.04
2022-09-26T02:37:25.753Z,1.04
2022-09-26T02:38:25.855Z,1.04
2022-09-26T02:39:25.958Z,1.04
2022-09-26T02:40:26.105Z,1.04
2022-09-26T02:41:26.211Z,1.04
2022-09-26T02:42:26.366Z,1.04
2022-09-26T02:43:26.514Z,1.04
2022-09-26T02:44:26.616Z,1.04
2022-09-26T02:45:26.810Z,1.04
2022-09-26T02:46:26.872Z,1.04
2022-09-26T02:47:26.970Z,1.04
2022-09-26T02:48:27.123Z,1.04
2022-09-26T02:49:27.277Z,1.04
2022-09-26T02:50:27.425Z,1.04
2022-09-26T02:51:27.537Z,1.04
2022-09-26T02:52:27.634Z,1.04
2022-09-26T02:53:27.744Z,1.04
2022-09-26T02:54:27.843Z,1.04
2022-09-26T02:55:27.988Z,1.04
2022-09-26T02:56:28.090Z,1.04
2022-09-26T02:57:28.239Z,1.04
2022-09-26T02:58:28.393Z,1.04
2022-09-26T02:59:28.543Z,1.04
2022-09-26T03:00:28.655Z,1.04
2022-09-26T03:01:28.811Z,1.04
2022-09-26T03:02:28.849Z,1.04
2022-09-26T03:03:29.033Z,1.04
2022-09-26T03:04:29.168Z,1.04
2022-09-26T03:05:29.208Z,1.04
2022-09-26T03:06:29.306Z,1.04
2022-09-26T03:07:29.408Z,1.04
2022-09-26T03:08:29.511Z,1.04
2022-09-26T03:09:29.612Z,1.04
2022-09-26T03:10:29.761Z,1.04
2022-09-26T03:11:29.862Z,1.04
2022-09-26T03:12:29.965Z,1.04
2022-09-26T03:13:30.080Z,1.04
2022-09-26T03:14:30.228Z,1.04
2022-09-26T03:15:30.376Z,1.04
2022-09-26T03:16:30.639Z,1.04
2022-09-26T03:17:30.624Z,1.04
2022-09-26T03:18:30.725Z,1.04
2022-09-26T03:19:30.870Z,1.04
2022-09-26T03:20:31.006Z,1.04
2022-09-26T03:21:34.918Z,1.04
2022-09-26T03:22:31.265Z,1.04
2022-09-26T03:23:31.383Z,1.04
2022-09-26T03:24:31.484Z,1.04
2022-09-26T03:25:31.586Z,1.04
2022-09-26T03:26:31.690Z,1.04
2022-09-26T03:27:31.792Z,1.04
2022-09-26T03:28:35.421Z,1.04
2022-09-26T03:29:32.095Z,1.04
2022-09-26T03:30:32.200Z,1.04
2022-09-26T03:31:32.430Z,1.04
2022-09-26T03:32:32.500Z,1.04
2022-09-26T03:33:32.860Z,1.04
2022-09-26T03:34:32.956Z,1.04
2022-09-26T03:35:33.063Z,1.04
2022-09-26T03:36:33.165Z,1.04
2022-09-26T03:37:33.270Z,1.04
2022-09-26T03:38:33.362Z,1.04
2022-09-26T03:39:33.516Z,1.04
2022-09-26T03:40:33.644Z,1.04
2022-09-26T03:41:33.726Z,1.04
2022-09-26T03:42:33.821Z,1.04
2022-09-26T03:43:33.920Z,1.04
2022-09-26T03:44:34.028Z,1.04
2022-09-26T03:45:34.168Z,1.04
2022-09-26T03:46:39.065Z,1.04
2022-09-26T03:47:34.379Z,1.04
2022-09-26T03:48:34.527Z,1.04
2022-09-26T03:49:34.684Z,1.04
2022-09-26T03:50:34.837Z,1.04
2022-09-26T03:51:34.936Z,1.04
2022-09-26T03:52:35.092Z,1.04
2022-09-26T03:53:35.189Z,1.04
2022-09-26T03:54:35.341Z,1.04
2022-09-26T03:55:35.439Z,1.04
2022-09-26T03:56:35.546Z,1.04
2022-09-26T03:57:35.643Z,1.04
2022-09-26T03:58:35.744Z,1.04
2022-09-26T03:59:35.847Z,1.04
2022-09-26T04:00:35.980Z,1.04
2022-09-26T04:01:36.114Z,1.04
2022-09-26T04:02:36.359Z,1.04
2022-09-26T04:03:36.405Z,1.04
2022-09-26T04:04:36.506Z,1.04
2022-09-26T04:05:36.611Z,1.04
2022-09-26T04:06:36.747Z,1.04
2022-09-26T04:07:36.814Z,1.04
2022-09-26T04:08:36.967Z,1.04
2022-09-26T04:09:37.071Z,1.04
2022-09-26T04:10:37.185Z,1.04
2022-09-26T04:11:37.274Z,1.04
2022-09-26T04:12:37.422Z,1.04
2022-09-26T04:13:51.110Z,1.04
2022-09-26T04:14:37.681Z,1.04
2022-09-26T04:15:37.778Z,1.04
2022-09-26T04:16:38.000Z,1.04
2022-09-26T04:17:38.078Z,1.04
2022-09-26T04:18:38.235Z,1.04
2022-09-26T04:19:38.335Z,1.04
2022-09-26T04:20:38.436Z,1.04
2022-09-26T04:21:38.539Z,1.04
2022-09-26T04:22:38.687Z,1.04
2022-09-26T04:23:38.840Z,1.04
2022-09-26T04:24:38.942Z,1.04
2022-09-26T04:25:39.045Z,1.04
2022-09-26T04:26:39.145Z,1.04
2022-09-26T04:27:39.247Z,1.04
2022-09-26T04:28:39.399Z,1.04
2022-09-26T04:29:39.804Z,1.04
2022-09-26T04:30:39.957Z,1.04
2022-09-26T04:31:40.112Z,1.04
2022-09-26T04:32:40.254Z,2
2022-09-26T04:33:40.408Z,2
2022-09-26T04:34:40.560Z,2
2022-09-26T04:35:40.660Z,3.04
2022-09-26T04:36:40.766Z,3.04
2022-09-26T04:37:40.916Z,3.04
2022-09-26T04:38:41.087Z,4
2022-09-26T04:39:41.217Z,4
2022-09-26T04:40:42.868Z,5.04
2022-09-26T04:41:41.471Z,6
2022-09-26T04:42:41.576Z,7.04
2022-09-26T04:43:41.678Z,7.04
2022-09-26T04:44:41.785Z,7.04
2022-09-26T04:45:41.900Z,10
2022-09-26T04:46:41.986Z,13.04
2022-09-26T04:47:42.087Z,15.04
2022-09-26T04:48:42.245Z,16
2022-09-26T04:49:42.405Z,18
2022-09-26T04:50:42.493Z,21.04
2022-09-26T04:51:42.639Z,27.04
2022-09-26T04:52:42.745Z,36
2022-09-26T04:53:42.849Z,46
2022-09-26T04:54:42.943Z,59.04
2022-09-26T04:55:43.048Z,65.04
2022-09-26T04:56:43.150Z,69.04
2022-09-26T04:57:43.304Z,76
2022-09-26T04:58:43.453Z,84
2022-09-26T04:59:43.615Z,88
2022-09-26T05:00:43.792Z,94
2022-09-26T05:01:43.969Z,94
2022-09-26T05:02:44.121Z,99.04
2022-09-26T05:03:44.169Z,107.04
2022-09-26T05:04:44.323Z,111.04
2022-09-26T05:05:44.463Z,106
2022-09-26T05:06:44.622Z,94
2022-09-26T05:07:44.718Z,95.04
2022-09-26T05:08:44.873Z,116
2022-09-26T05:09:44.981Z,129.04
2022-09-26T05:10:45.072Z,134
2022-09-26T05:11:45.198Z,134
2022-09-26T05:12:45.353Z,141.04
2022-09-26T05:13:47.273Z,146
2022-09-26T05:14:45.697Z,147.04
2022-09-26T05:15:45.831Z,151.04
2022-09-26T05:16:46.043Z,154
2022-09-26T05:17:46.082Z,157.04
2022-09-26T05:18:46.236Z,169.12
2022-09-26T05:19:46.341Z,198.08
2022-09-26T05:20:46.454Z,229.12
2022-09-26T05:21:46.542Z,264
2022-09-26T05:22:46.715Z,304
2022-09-26T05:23:46.850Z,369.28
2022-09-26T05:24:46.996Z,456
2022-09-26T05:25:47.157Z,515.2
2022-09-26T05:26:47.263Z,543.04
2022-09-26T05:27:47.402Z,562.24
2022-09-26T05:28:47.509Z,519.04
2022-09-26T05:29:47.619Z,460.16
2022-09-26T05:30:47.755Z,392
2022-09-26T05:31:47.895Z,319.04
2022-09-26T05:32:47.962Z,348.16
2022-09-26T05:33:48.116Z,407.04
2022-09-26T05:34:48.304Z,461.12
2022-09-26T05:35:48.322Z,559.04
2022-09-26T05:36:48.471Z,727.04
2022-09-26T05:37:48.624Z,788.48
2022-09-26T05:38:48.722Z,891.52
2022-09-26T05:39:48.881Z,842.24
2022-09-26T05:40:49.043Z,762.24
2022-09-26T05:41:49.130Z,736
2022-09-26T05:42:49.280Z,764.16
2022-09-26T05:43:49.381Z,761.6
2022-09-26T05:44:49.500Z,671.36
2022-09-26T05:45:49.633Z,779.52
2022-09-26T05:46:49.832Z,945.28
2022-09-26T05:47:49.893Z,817.28
2022-09-26T05:48:50.038Z,845.44
2022-09-26T05:49:50.201Z,819.2
2022-09-26T05:50:50.857Z,894.08
2022-09-26T05:51:50.454Z,1059.2
2022-09-26T05:52:50.580Z,1058.56
2022-09-26T05:53:50.703Z,1138.56
2022-09-26T05:54:51.526Z,1187.2
2022-09-26T05:55:50.955Z,1165.44
2022-09-26T05:56:51.754Z,1169.28
2022-09-26T05:57:51.263Z,1249.28
2022-09-26T05:58:51.959Z,1257.6
2022-09-26T05:59:51.570Z,1223.04
2022-09-26T06:00:52.208Z,1099.52
2022-09-26T06:01:52.020Z,1021.44
2022-09-26T06:02:51.965Z,1011.2
2022-09-26T06:03:52.623Z,987.52
2022-09-26T06:04:52.277Z,898.56
2022-09-26T06:05:52.974Z,803.2
2022-09-26T06:06:52.527Z,799.36
2022-09-26T06:07:52.636Z,881.28
2022-09-26T06:08:52.776Z,990.08
2022-09-26T06:09:52.950Z,1072
2022-09-26T06:10:53.035Z,1126.4
2022-09-26T06:11:53.194Z,1187.2
2022-09-26T06:12:53.331Z,1367.04
2022-09-26T06:13:53.438Z,1542.4
2022-09-26T06:14:53.598Z,1794.56
2022-09-26T06:15:53.760Z,1996.8
2022-09-26T06:16:53.908Z,2252.8
2022-09-26T06:17:53.998Z,2419.2
2022-09-26T06:18:54.143Z,2624
2022-09-26T06:19:54.244Z,2721.28
2022-09-26T06:20:54.365Z,2772.48
2022-09-26T06:21:54.501Z,2900.48
2022-09-26T06:22:54.600Z,3174.4
2022-09-26T06:23:54.750Z,3420.16
2022-09-26T06:24:54.856Z,3773.44
2022-09-26T06:25:55.007Z,3991.04
2022-09-26T06:26:55.154Z,4206.08
2022-09-26T06:27:59.730Z,4321.28
2022-09-26T06:28:55.414Z,4441.6
2022-09-26T06:29:55.590Z,4561.92
2022-09-26T06:30:55.717Z,4712.96
2022-09-26T06:31:55.852Z,4899.84
2022-09-26T06:32:55.917Z,5130.24
2022-09-26T06:33:56.076Z,5463.04
2022-09-26T06:34:56.170Z,5729.28
2022-09-26T06:35:56.280Z,5903.36
2022-09-26T06:36:56.425Z,6159.36
2022-09-26T06:37:56.541Z,6328.32
2022-09-26T06:38:56.677Z,6318.08
2022-09-26T06:39:59.311Z,6174.72
2022-09-26T06:40:56.937Z,6108.16
2022-09-26T06:41:57.032Z,6133.76
2022-09-26T06:42:57.146Z,6072.32
2022-09-26T06:43:57.240Z,5888
2022-09-26T06:44:57.410Z,5698.56
2022-09-26T06:45:57.554Z,5672.96
2022-09-26T06:46:57.722Z,5683.2
2022-09-26T06:47:57.856Z,5585.92
2022-09-26T06:48:57.955Z,5519.36
2022-09-26T06:49:58.102Z,5616.64
2022-09-26T06:50:58.206Z,6717.44
2022-09-26T06:51:58.333Z,5565.44
2022-09-26T06:53:00.135Z,4958.72
2022-09-26T06:53:58.557Z,4779.52
2022-09-26T06:54:58.657Z,5235.2
2022-09-26T06:55:58.813Z,4992
2022-09-26T06:56:58.911Z,5422.08
2022-09-26T06:57:59.061Z,7070.72
2022-09-26T06:58:59.217Z,7024.64
2022-09-26T06:59:59.325Z,6138.88
2022-09-26T07:00:59.588Z,4864
2022-09-26T07:01:59.730Z,7096.32
2022-09-26T07:02:59.723Z,7065.6
2022-09-26T07:03:59.825Z,6999.04
2022-09-26T07:04:59.973Z,6968.32
2022-09-26T07:06:00.076Z,7009.28
2022-09-26T07:07:00.183Z,6993.92
2022-09-26T07:08:00.331Z,7203.84
2022-09-26T07:09:04.035Z,7229.44
2022-09-26T07:10:00.591Z,7388.16
2022-09-26T07:11:16.070Z,7383.04
2022-09-26T07:12:14.886Z,7398.4
2022-09-26T07:13:00.945Z,7408.64
2022-09-26T07:14:01.089Z,7674.88
2022-09-26T07:15:01.233Z,7813.12
2022-09-26T07:16:01.359Z,7746.56
2022-09-26T07:17:01.496Z,7920.64
2022-09-26T07:18:01.601Z,8161.28
2022-09-26T07:19:01.701Z,8192
2022-09-26T07:20:01.805Z,8360.96
2022-09-26T07:21:01.955Z,8698.88
2022-09-26T07:22:02.104Z,8893.439
2022-09-26T07:23:02.206Z,8913.92
2022-09-26T07:24:02.355Z,9006.08
2022-09-26T07:25:02.460Z,9359.359
2022-09-26T07:26:02.581Z,10690.56
2022-09-26T07:27:02.670Z,13854.72
2022-09-26T07:28:02.762Z,14592
2022-09-26T07:29:02.884Z,13383.68
2022-09-26T07:30:03.034Z,12595.2
2022-09-26T07:31:03.257Z,12339.2
2022-09-26T07:32:03.301Z,12288
2022-09-26T07:33:03.373Z,12431.359
2022-09-26T07:34:03.474Z,10250.24
2022-09-26T07:35:03.582Z,8238.08
2022-09-26T07:36:05.565Z,10741.76
2022-09-26T07:37:03.838Z,11632.64
2022-09-26T07:38:03.988Z,9487.359
2022-09-26T07:39:04.134Z,12718.08
2022-09-26T07:40:04.238Z,10915.84
2022-09-26T07:41:04.400Z,16322.56
2022-09-26T07:42:04.442Z,15226.88
2022-09-26T07:43:18.894Z,14663.68
2022-09-26T07:44:53.236Z,13608.96
2022-09-26T07:45:29.234Z,12124.16
2022-09-26T07:46:05.057Z,9277.439
2022-09-26T07:47:05.274Z,10659.84
2022-09-26T07:48:05.299Z,8888.319
2022-09-26T07:49:05.447Z,8442.88
2022-09-26T07:50:05.602Z,8801.28
2022-09-26T07:51:08.492Z,8048.64
2022-09-26T07:52:05.807Z,6384.64
2022-09-26T07:53:05.904Z,8878.08
2022-09-26T07:54:06.098Z,6630.4
2022-09-26T07:55:06.116Z,8089.6
2022-09-26T07:56:06.214Z,7895.04
2022-09-26T07:57:06.319Z,7577.6
2022-09-26T07:58:06.425Z,8683.52
2022-09-26T07:59:06.519Z,11622.399
2022-09-26T08:00:06.675Z,10024.96
2022-09-26T08:01:06.827Z,10209.279
2022-09-26T08:02:07.055Z,8099.84
2022-09-26T08:03:07.192Z,6128.64
2022-09-26T08:04:07.364Z,6164.48
2022-09-26T08:05:07.378Z,5985.28
2022-09-26T08:06:07.533Z,5647.36
2022-09-26T08:07:07.639Z,5826.56
2022-09-26T08:08:07.731Z,6287.36
2022-09-26T08:09:07.892Z,6814.72
2022-09-26T08:10:08.000Z,8401.92
2022-09-26T08:11:08.093Z,8227.84
2022-09-26T08:12:08.190Z,12748.8
2022-09-26T08:13:08.293Z,12185.6
2022-09-26T08:14:08.479Z,12472.319
2022-09-26T08:15:08.521Z,11151.359
2022-09-26T08:16:08.697Z,11161.6
2022-09-26T08:17:13.429Z,8268.8
2022-09-26T08:18:08.910Z,12544
2022-09-26T08:19:09.055Z,8867.84
2022-09-26T08:20:09.107Z,5847.04
2022-09-26T08:21:09.261Z,5903.36
2022-09-26T08:22:09.363Z,6691.84
2022-09-26T08:23:09.511Z,8023.04
2022-09-26T08:24:09.655Z,7889.92
2022-09-26T08:25:09.772Z,9082.88
2022-09-26T08:26:09.917Z,8504.319
2022-09-26T08:27:10.040Z,11939.84
2022-09-26T08:28:10.199Z,10659.84
2022-09-26T08:29:10.365Z,16793.6
2022-09-26T08:30:10.518Z,8739.84
2022-09-26T08:31:10.640Z,8903.68
2022-09-26T08:32:10.779Z,9661.439
2022-09-26T08:33:11.290Z,11694.08
2022-09-26T08:34:11.392Z,10772.479
2022-09-26T08:35:11.528Z,15728.64
2022-09-26T08:36:11.635Z,7495.68
2022-09-26T08:37:11.734Z,7275.52
2022-09-26T08:38:11.890Z,6978.56
2022-09-26T08:39:12.035Z,7137.28
2022-09-26T08:40:12.203Z,7408.64
2022-09-26T08:41:12.293Z,8309.76
2022-09-26T08:42:12.396Z,9139.2
2022-09-26T08:43:12.554Z,9507.84
2022-09-26T08:44:12.688Z,9390.08
2022-09-26T08:45:12.755Z,9036.8
2022-09-26T08:46:12.946Z,8632.319
2022-09-26T08:47:13.008Z,8806.399
2022-09-26T08:48:13.103Z,15677.439
2022-09-26T08:49:13.258Z,16056.319
2022-09-26T08:50:13.386Z,17889.28
2022-09-26T08:51:13.512Z,17182.72
2022-09-26T08:52:13.626Z,17295.36
2022-09-26T08:53:13.882Z,17571.84
2022-09-26T08:54:14.054Z,17612.8
2022-09-26T08:55:14.116Z,17643.52
2022-09-26T08:56:14.220Z,18667.52
2022-09-26T08:57:14.325Z,18954.24
2022-09-26T08:58:14.423Z,19169.28
2022-09-26T08:59:14.572Z,20131.84
2022-09-26T09:00:14.685Z,21012.48
2022-09-26T09:01:14.895Z,23490.56
2022-09-26T09:02:15.148Z,23121.92
2022-09-26T09:03:15.234Z,13137.92
2022-09-26T09:04:15.469Z,24637.44
2022-09-26T09:05:15.385Z,25722.88
2022-09-26T09:06:15.541Z,14499.84
2022-09-26T09:07:15.696Z,11489.279
2022-09-26T09:08:15.847Z,10327.04
2022-09-26T09:09:15.998Z,24678.4
2022-09-26T09:10:16.098Z,25661.44
2022-09-26T09:11:16.249Z,26398.72
2022-09-26T09:12:18.567Z,26091.52
2022-09-26T09:13:16.501Z,26624
2022-09-26T09:14:16.792Z,27688.96
2022-09-26T09:15:24.984Z,27095.04
2022-09-26T09:16:16.849Z,27627.52
2022-09-26T09:17:16.916Z,14366.72
2022-09-26T09:18:17.012Z,30064.64
2022-09-26T09:19:17.116Z,12779.52
2022-09-26T09:20:17.221Z,14274.56
2022-09-26T09:21:17.375Z,28958.72
2022-09-26T09:22:17.467Z,29204.48
2022-09-26T09:23:17.616Z,29982.72
2022-09-26T09:24:17.749Z,28835.84
2022-09-26T09:25:17.868Z,29163.52
2022-09-26T09:28:18.275Z,31764.48
2022-09-26T09:29:19.298Z,31109.12
2022-09-26T09:30:18.581Z,31027.2
2022-09-26T09:31:18.768Z,31948.8
2022-09-26T09:32:18.837Z,33075.2
2022-09-26T09:33:18.984Z,32604.16
2022-09-26T09:34:19.089Z,27402.24
2022-09-26T09:35:19.189Z,32522.24
2022-09-26T09:36:19.342Z,33423.36
2022-09-26T09:37:19.443Z,32501.76
2022-09-26T09:38:19.595Z,33136.64
2022-09-26T09:39:19.697Z,34590.72
2022-09-26T09:40:19.894Z,22036.48
2022-09-26T09:41:19.945Z,23449.6
2022-09-26T09:42:20.051Z,34795.52
2022-09-26T09:43:20.199Z,27238.4
2022-09-26T09:44:20.352Z,25108.48
2022-09-26T09:45:20.455Z,42106.88
2022-09-26T09:46:20.673Z,37498.88
2022-09-26T09:47:20.710Z,40079.36
2022-09-26T09:48:20.813Z,34488.32
2022-09-26T09:49:20.959Z,38400
2022-09-26T09:50:21.074Z,39157.76
2022-09-26T09:51:21.212Z,23347.2
2022-09-26T09:52:21.323Z,39690.24
2022-09-26T09:53:21.473Z,14213.12
2022-09-26T09:54:21.574Z,26255.36
2022-09-26T09:55:21.723Z,24248.32
2022-09-26T09:56:21.828Z,33669.12
2022-09-26T09:57:21.975Z,43991.04
2022-09-26T09:58:22.075Z,43335.68
2022-09-26T09:59:22.249Z,43253.76
2022-09-26T10:00:22.379Z,43376.64
2022-09-26T10:01:22.541Z,42270.72
2022-09-26T10:02:22.654Z,41472
2022-09-26T10:03:22.824Z,42147.84
2022-09-26T10:04:22.841Z,10357.76
2022-09-26T10:05:22.940Z,8780.8
2022-09-26T10:06:44.005Z,7383.04
2022-09-26T10:07:23.244Z,7306.24
2022-09-26T10:08:23.436Z,10352.64
2022-09-26T10:09:35.077Z,20817.92
2022-09-26T10:10:23.654Z,21954.56
2022-09-26T10:11:23.803Z,8053.76
2022-09-26T10:12:23.923Z,42721.28
2022-09-26T10:13:24.055Z,42926.08
2022-09-26T10:14:24.205Z,42762.24
2022-09-26T10:15:24.356Z,8483.84
2022-09-26T10:16:24.585Z,44933.12
2022-09-26T10:17:24.672Z,22753.28
2022-09-26T10:18:25.940Z,47349.76
2022-09-26T10:19:24.916Z,48783.36
2022-09-26T10:20:25.070Z,50176
2022-09-26T10:21:25.221Z,49807.36
2022-09-26T10:22:25.374Z,24268.8
2022-09-26T10:23:25.472Z,28672
2022-09-26T10:24:25.577Z,51650.56
2022-09-26T10:25:25.724Z,51527.68
2022-09-26T10:26:30.566Z,52838.4
2022-09-26T10:27:25.982Z,50216.96
2022-09-26T10:28:26.081Z,51200
2022-09-26T10:29:26.240Z,52224
2022-09-26T10:30:26.333Z,17295.36
2022-09-26T10:31:26.589Z,14817.279
2022-09-26T10:32:26.585Z,54190.08
2022-09-26T10:33:26.687Z,14151.68
2022-09-26T10:34:26.798Z,12789.76
2022-09-26T10:35:26.891Z,55541.76
2022-09-26T10:36:26.991Z,54681.6
2022-09-26T10:37:27.093Z,54026.24
2022-09-26T10:38:27.200Z,54231.04
2022-09-26T10:39:27.303Z,54599.68
2022-09-26T10:40:27.483Z,54435.84
2022-09-26T10:41:27.554Z,54804.48
2022-09-26T10:42:32.104Z,55091.2
2022-09-26T10:43:27.804Z,55541.76
2022-09-26T10:44:27.961Z,55869.44
2022-09-26T10:45:28.269Z,56115.2
2022-09-26T10:46:28.450Z,56524.8
2022-09-26T10:47:28.567Z,56934.4
2022-09-26T10:48:28.668Z,57425.92
2022-09-26T10:49:28.844Z,58163.2
2022-09-26T10:50:28.968Z,58695.68
2022-09-26T10:51:29.125Z,59064.32
2022-09-26T10:52:29.273Z,59719.68
2022-09-26T10:53:29.374Z,60334.08
2022-09-26T10:54:29.480Z,61644.8
2022-09-26T10:55:29.625Z,62668.8
2022-09-26T10:56:29.735Z,62504.96
2022-09-26T10:57:30.676Z,62873.6
2022-09-26T10:58:30.113Z,63406.08
2022-09-26T10:59:30.034Z,64512
2022-09-26T11:00:30.139Z,66191.36
2022-09-26T11:01:30.360Z,67297.28
2022-09-26T11:02:30.444Z,66887.68
2022-09-26T11:03:30.615Z,60538.88
2022-09-26T11:04:30.695Z,68567.04
2022-09-26T11:05:30.843Z,71598.08
2022-09-26T11:06:31.002Z,73646.08
2022-09-26T11:07:31.107Z,75366.4
2022-09-26T11:08:31.203Z,75898.88
2022-09-26T11:09:31.353Z,75366.4
2022-09-26T11:10:31.506Z,74915.84
2022-09-26T11:11:31.603Z,74137.6
2022-09-26T11:12:31.707Z,73646.08
2022-09-26T11:13:31.809Z,73195.52
2022-09-26T11:14:31.912Z,73973.76
2022-09-26T11:15:32.183Z,76308.48
2022-09-26T11:16:36.509Z,78028.8
2022-09-26T11:17:32.372Z,77332.48
2022-09-26T11:18:32.515Z,76226.56
2022-09-26T11:19:32.665Z,75325.44
2022-09-26T11:20:32.817Z,77291.52
2022-09-26T11:21:32.929Z,78356.48
2022-09-26T11:22:33.072Z,77086.72
2022-09-26T11:23:33.225Z,77701.12
2022-09-26T11:24:33.606Z,77373.44
2022-09-26T11:25:35.740Z,77987.84
2022-09-26T11:26:33.644Z,79175.68
2022-09-26T11:27:33.785Z,81182.72
2022-09-26T11:28:34.331Z,82493.44
2022-09-26T11:29:34.040Z,82083.84
2022-09-26T11:30:34.193Z,81715.2
2022-09-26T11:31:34.724Z,80199.68
2022-09-26T11:32:34.497Z,79257.6
2022-09-26T11:33:34.995Z,79994.88
2022-09-26T11:34:34.747Z,80977.92
2022-09-26T11:35:35.297Z,79708.16
2022-09-26T11:36:35.054Z,72171.52
2022-09-26T11:37:35.212Z,84377.6
2022-09-26T11:38:35.303Z,77578.24
2022-09-26T11:39:35.456Z,85278.72
2022-09-26T11:40:35.629Z,88473.6
2022-09-26T11:41:35.706Z,91176.96
2022-09-26T11:42:35.988Z,90685.44
2022-09-26T11:43:36.115Z,91422.72
2022-09-26T11:44:36.266Z,91668.48
2022-09-26T11:45:39.996Z,90931.2
2022-09-26T11:46:36.554Z,90193.92
2022-09-26T11:47:36.618Z,70451.2
2022-09-26T11:48:36.729Z,84213.76
2022-09-26T11:49:36.833Z,94371.84
2022-09-26T11:50:36.979Z,93306.88
2022-09-26T11:51:37.107Z,99614.72
2022-09-26T11:52:37.276Z,97484.8
2022-09-26T11:53:37.378Z,94945.28
2022-09-26T11:54:37.480Z,92487.68
2022-09-26T11:55:37.583Z,90931.2
2022-09-26T11:56:38.074Z,90767.36
2022-09-26T11:57:38.134Z,91668.48
2022-09-26T11:58:38.285Z,94945.28
2022-09-26T11:59:38.392Z,18544.64
2022-09-26T12:00:38.540Z,19476.48
2022-09-26T12:01:38.697Z,20234.24
2022-09-26T12:02:38.863Z,21790.72
2022-09-26T12:03:39.156Z,23224.32
2022-09-26T12:04:39.102Z,99942.4
2022-09-26T12:05:39.209Z,99205.12
2022-09-26T12:06:39.318Z,80691.2
2022-09-26T12:07:39.458Z,99614.72
2022-09-26T12:08:39.602Z,100188.16
2022-09-26T12:09:39.759Z,100597.76
2022-09-26T12:10:39.855Z,100106.23
2022-09-26T12:11:40.013Z,98877.44
2022-09-26T12:12:40.711Z,98795.52
2022-09-26T12:13:40.265Z,98467.84
2022-09-26T12:14:40.369Z,96911.36
2022-09-26T12:15:40.528Z,94781.44
2022-09-26T12:16:40.572Z,93880.32
2022-09-26T12:17:40.675Z,92897.28
2022-09-26T12:18:40.799Z,92487.68
2022-09-26T12:19:40.926Z,92078.08
2022-09-26T12:20:41.027Z,92241.91
2022-09-26T12:21:41.181Z,91750.4
2022-09-26T12:22:41.328Z,91095.04
2022-09-26T12:23:41.496Z,89784.32
2022-09-26T12:24:41.635Z,89866.23
2022-09-26T12:25:41.747Z,89866.23
2022-09-26T12:26:41.888Z,89948.16
2022-09-26T12:27:41.988Z,91340.8
2022-09-26T12:28:42.139Z,92733.44
2022-09-26T12:29:42.250Z,75448.32
2022-09-26T12:30:42.454Z,98058.23
2022-09-26T12:31:42.515Z,22876.16
2022-09-26T12:32:42.599Z,21913.6
2022-09-26T12:33:42.753Z,27709.44
2022-09-26T12:34:42.899Z,87490.55
2022-09-26T12:35:43.008Z,45383.68